createdAt,value
2023-02-06T00:02:03.308Z,7.43
2023-02-06T00:04:29.832Z,8.63
2023-02-06T00:06:56.385Z,8.48
2023-02-06T00:09:22.857Z,8.25
2023-02-06T00:11:49.360Z,8.50
2023-02-06T00:14:15.829Z,9.07
2023-02-06T00:16:42.298Z,8.32
2023-02-06T00:19:08.791Z,8.98
2023-02-06T00:21:35.286Z,8.25
2023-02-06T00:24:02.801Z,8.35
2023-02-06T00:26:31.393Z,7.90
2023-02-06T00:28:58.165Z,7.28
2023-02-06T00:31:24.857Z,8.05
2023-02-06T00:33:51.486Z,7.85
2023-02-06T00:36:18.025Z,7.93
2023-02-06T00:38:44.575Z,8.63
2023-02-06T00:41:11.290Z,8.48
2023-02-06T00:43:37.808Z,7.85
2023-02-06T00:46:04.475Z,8.30
2023-02-06T00:48:31.056Z,8.57
2023-02-06T00:50:57.584Z,8.82
2023-02-06T00:53:24.089Z,8.73
2023-02-06T00:55:50.618Z,8.82
2023-02-06T00:58:17.115Z,9.18
2023-02-06T01:00:44.261Z,8.60
2023-02-06T01:03:11.215Z,8.15
2023-02-06T01:05:37.984Z,9.10
2023-02-06T01:08:04.959Z,9.13
2023-02-06T01:10:31.973Z,9.02
2023-02-06T01:12:58.486Z,8.75
2023-02-06T01:15:24.979Z,8.02
2023-02-06T01:17:51.496Z,8.80
2023-02-06T01:20:18.143Z,8.27
2023-02-06T01:22:44.667Z,8.45
2023-02-06T01:25:11.219Z,8.40
2023-02-06T01:27:38.267Z,7.65
2023-02-06T01:30:06.932Z,7.00
2023-02-06T01:32:37.736Z,7.20
2023-02-06T01:35:06.738Z,8.32
2023-02-06T01:37:33.336Z,8.07
2023-02-06T01:39:59.913Z,7.75
2023-02-06T01:42:26.429Z,7.97
2023-02-06T01:45:17.564Z,7.68
2023-02-06T01:47:44.071Z,7.05
2023-02-06T01:50:10.651Z,8.40
2023-02-06T01:52:37.135Z,7.78
2023-02-06T01:55:05.039Z,7.22
2023-02-06T01:57:33.652Z,7.38
2023-02-06T02:00:05.926Z,7.68
2023-02-06T02:02:32.810Z,8.07
2023-02-06T02:05:01.644Z,6.78
2023-02-06T02:07:33.189Z,7.47
2023-02-06T02:09:59.732Z,7.10
2023-02-06T02:12:26.453Z,7.03
2023-02-06T02:14:54.254Z,7.22
2023-02-06T02:17:49.783Z,8.00
2023-02-06T02:20:38.602Z,7.57
2023-02-06T02:23:29.471Z,6.95
2023-02-06T02:26:18.279Z,7.50
2023-02-06T02:28:58.969Z,7.20
2023-02-06T02:31:49.601Z,7.13
2023-02-06T02:34:51.622Z,7.75
2023-02-06T02:37:50.237Z,7.40
2023-02-06T02:40:20.822Z,7.20
2023-02-06T02:43:12.097Z,7.60
2023-02-06T02:45:48.351Z,7.68
2023-02-06T02:48:20.661Z,7.82
2023-02-06T02:50:47.816Z,7.28
2023-02-06T02:53:14.901Z,8.27
2023-02-06T02:55:41.709Z,7.63
2023-02-06T02:58:15.496Z,7.30
2023-02-06T03:00:49.103Z,7.32
2023-02-06T03:03:22.150Z,7.15
2023-02-06T03:06:17.953Z,7.20
2023-02-06T03:09:03.073Z,7.55
2023-02-06T03:11:30.715Z,7.38
2023-02-06T03:14:06.052Z,7.90
2023-02-06T03:16:44.741Z,7.20
2023-02-06T03:19:13.376Z,7.15
2023-02-06T03:21:42.220Z,7.40
2023-02-06T03:24:13.559Z,7.70
2023-02-06T03:26:41.902Z,8.00
2023-02-06T03:29:12.169Z,6.93
2023-02-06T03:31:45.603Z,6.10
2023-02-06T03:39:13.390Z,6.13
2023-02-06T03:41:41.569Z,6.03
2023-02-06T03:44:13.167Z,6.63
2023-02-06T03:46:43.244Z,7.10
2023-02-06T03:49:14.071Z,5.97
2023-02-06T03:51:45.613Z,5.78
2023-02-06T03:54:16.150Z,6.50
2023-02-06T03:56:53.744Z,6.63
2023-02-06T03:59:21.012Z,6.00
2023-02-06T04:01:51.830Z,6.00
2023-02-06T04:04:20.351Z,6.25
2023-02-06T04:06:47.507Z,6.57
2023-02-06T04:09:13.969Z,6.30
2023-02-06T04:11:40.424Z,5.70
2023-02-06T04:14:06.927Z,7.28
2023-02-06T04:16:33.470Z,6.70
2023-02-06T04:18:59.988Z,6.82
2023-02-06T04:21:26.463Z,7.65
2023-02-06T04:23:52.928Z,6.88
2023-02-06T04:26:19.364Z,6.72
2023-02-06T04:28:45.840Z,8.02
2023-02-06T04:31:12.428Z,6.93
2023-02-06T04:33:38.968Z,6.93
2023-02-06T04:36:05.733Z,7.22
2023-02-06T04:38:32.270Z,7.40
2023-02-06T04:41:03.619Z,7.85
2023-02-06T04:43:30.054Z,7.22
2023-02-06T04:45:56.573Z,7.03
2023-02-06T04:48:23.237Z,7.82
2023-02-06T04:50:50.712Z,7.65
2023-02-06T04:53:17.716Z,8.35
2023-02-06T04:55:44.281Z,8.52
2023-02-06T04:58:10.919Z,9.18
2023-02-06T05:00:38.814Z,9.27
2023-02-06T05:03:05.409Z,10.45
2023-02-06T05:05:31.894Z,10.35
2023-02-06T05:07:58.340Z,10.00
2023-02-06T05:10:24.801Z,10.27
2023-02-06T05:12:51.352Z,9.88
2023-02-06T05:15:18.016Z,12.00
2023-02-06T05:17:44.655Z,12.07
2023-02-06T05:20:11.473Z,12.02
2023-02-06T05:22:38.096Z,12.50
2023-02-06T05:25:04.741Z,12.88
2023-02-06T05:27:31.229Z,13.45
2023-02-06T05:29:57.735Z,14.38
2023-02-06T05:32:24.224Z,12.98
2023-02-06T05:34:53.580Z,12.45
2023-02-06T05:37:20.164Z,13.90
2023-02-06T05:39:46.627Z,12.52
2023-02-06T05:42:13.177Z,14.32
2023-02-06T05:44:39.774Z,12.00
2023-02-06T05:47:06.240Z,12.95
2023-02-06T05:49:32.726Z,12.40
2023-02-06T05:51:59.216Z,12.35
2023-02-06T05:54:25.734Z,11.50
2023-02-06T05:56:52.321Z,12.75
2023-02-06T05:59:18.991Z,11.30
2023-02-06T06:01:45.470Z,12.00
2023-02-06T06:04:12.162Z,12.23
2023-02-06T06:06:38.676Z,12.32
2023-02-06T06:09:05.257Z,12.10
2023-02-06T06:11:33.333Z,12.27
2023-02-06T06:13:59.980Z,12.48
2023-02-06T06:16:26.567Z,11.02
2023-02-06T06:18:53.362Z,11.10
2023-02-06T06:21:19.881Z,11.00
2023-02-06T06:23:46.416Z,11.68
2023-02-06T06:26:13.024Z,12.55
2023-02-06T06:28:39.631Z,12.35
2023-02-06T06:31:08.885Z,11.77
2023-02-06T06:33:35.489Z,11.05
2023-02-06T06:36:02.022Z,11.27
2023-02-06T06:38:28.528Z,11.23
2023-02-06T06:40:55.029Z,12.85
2023-02-06T06:43:21.601Z,11.35
2023-02-06T06:45:48.124Z,11.27
2023-02-06T06:48:14.685Z,11.68
2023-02-06T06:50:41.474Z,12.25
2023-02-06T06:53:08.041Z,10.90
2023-02-06T06:55:35.311Z,11.48
2023-02-06T06:58:02.693Z,12.35
2023-02-06T07:00:29.248Z,11.82
2023-02-06T07:02:55.770Z,11.93
2023-02-06T07:05:22.317Z,12.55
2023-02-06T07:07:48.836Z,12.77
2023-02-06T07:10:15.719Z,11.52
2023-02-06T07:12:42.307Z,11.93
2023-02-06T07:15:09.256Z,12.90
2023-02-06T07:17:36.724Z,11.38
2023-02-06T07:20:03.927Z,12.27
2023-02-06T07:22:30.453Z,11.00
2023-02-06T07:24:56.955Z,10.25
2023-02-06T07:27:23.492Z,10.80
2023-02-06T07:29:50.006Z,10.40
2023-02-06T07:32:16.480Z,10.27
2023-02-06T07:34:42.934Z,10.07
2023-02-06T07:37:09.507Z,10.35
2023-02-06T07:39:36.053Z,10.50
2023-02-06T07:42:02.608Z,10.75
2023-02-06T07:44:29.054Z,11.00
2023-02-06T07:46:55.556Z,9.55
2023-02-06T07:49:22.064Z,10.90
2023-02-06T07:51:48.797Z,11.77
2023-02-06T07:54:15.443Z,11.18
2023-02-06T07:56:42.593Z,9.93
2023-02-06T07:59:09.482Z,10.60
2023-02-06T08:01:36.505Z,10.95
2023-02-06T08:04:03.669Z,11.73
2023-02-06T08:06:30.185Z,9.75
2023-02-06T08:08:57.012Z,10.38
2023-02-06T08:11:30.215Z,10.25
2023-02-06T08:13:57.736Z,11.75
2023-02-06T08:16:24.733Z,11.75
2023-02-06T08:18:52.095Z,11.52
2023-02-06T08:21:21.665Z,11.18
2023-02-06T08:23:53.682Z,10.77
2023-02-06T08:26:21.968Z,13.05
2023-02-06T08:28:50.019Z,13.13
2023-02-06T08:31:31.749Z,11.75
2023-02-06T08:33:58.354Z,12.80
2023-02-06T08:36:25.721Z,13.20
2023-02-06T08:38:53.134Z,11.90
2023-02-06T08:41:24.656Z,12.18
2023-02-06T08:43:53.898Z,11.57
2023-02-06T08:46:21.999Z,11.23
2023-02-06T08:48:48.660Z,12.35
2023-02-06T08:51:16.373Z,11.32
2023-02-06T08:53:43.046Z,11.65
2023-02-06T08:56:12.095Z,10.32
2023-02-06T08:58:39.196Z,11.38
2023-02-06T09:01:13.693Z,10.85
2023-02-06T09:03:41.804Z,10.85
2023-02-06T09:06:10.294Z,10.63
2023-02-06T09:08:38.171Z,11.80
2023-02-06T09:11:15.646Z,11.52
2023-02-06T09:13:43.809Z,11.15
2023-02-06T09:16:11.844Z,10.93
2023-02-06T09:18:38.454Z,11.85
2023-02-06T09:21:05.432Z,11.45
2023-02-06T09:23:32.012Z,11.48
2023-02-06T09:25:58.492Z,11.60
2023-02-06T09:28:25.060Z,10.60
2023-02-06T09:30:52.547Z,10.25
2023-02-06T09:33:19.140Z,10.88
2023-02-06T09:35:45.598Z,10.68
2023-02-06T09:38:12.124Z,10.43
2023-02-06T09:40:38.757Z,10.68
2023-02-06T09:43:05.695Z,9.65
2023-02-06T09:45:33.334Z,10.23
2023-02-06T09:48:14.239Z,9.77
2023-02-06T09:50:43.520Z,9.23
2023-02-06T09:54:05.916Z,9.55
2023-02-06T09:56:41.284Z,9.38
2023-02-06T09:59:22.850Z,10.00
2023-02-06T10:02:26.669Z,10.07
2023-02-06T10:05:03.303Z,9.88
2023-02-06T10:07:53.321Z,10.43
2023-02-06T10:10:45.383Z,9.00
2023-02-06T10:13:36.814Z,9.32
2023-02-06T10:16:29.249Z,10.05
2023-02-06T10:19:01.085Z,9.00
2023-02-06T10:21:38.931Z,9.07
2023-02-06T10:24:28.355Z,8.32
2023-02-06T10:26:55.821Z,8.90
2023-02-06T10:29:28.742Z,9.45
2023-02-06T10:32:08.536Z,9.65
2023-02-06T10:34:51.778Z,8.90
2023-02-06T10:37:51.191Z,7.68
2023-02-06T10:40:35.383Z,9.75
2023-02-06T10:43:13.944Z,8.68
2023-02-06T10:45:52.459Z,8.93
2023-02-06T10:48:40.341Z,8.80
2023-02-06T10:51:24.849Z,9.15
2023-02-06T10:53:54.393Z,8.63
2023-02-06T10:56:26.537Z,8.80
2023-02-06T10:59:01.103Z,8.98
2023-02-06T11:01:34.499Z,9.18
2023-02-06T11:06:32.661Z,9.18
2023-02-06T11:08:59.255Z,8.98
2023-02-06T11:11:31.618Z,8.63
2023-02-06T11:14:18.593Z,25.48
2023-02-06T11:16:46.752Z,9.75
2023-02-06T11:19:38.753Z,11.75
2023-02-06T11:22:05.767Z,8.85
2023-02-06T11:24:32.327Z,8.52
2023-02-06T11:27:16.019Z,9.02
2023-02-06T11:29:50.954Z,8.38
2023-02-06T11:32:43.913Z,11.38
2023-02-06T11:35:29.989Z,8.27
2023-02-06T11:38:15.703Z,10.38
2023-02-06T11:40:42.864Z,10.38
2023-02-06T11:43:22.080Z,9.00
2023-02-06T11:45:52.723Z,8.63
2023-02-06T11:48:48.817Z,8.20
2023-02-06T11:51:16.866Z,8.00
2023-02-06T11:54:01.047Z,8.15
2023-02-06T11:56:29.977Z,7.15
2023-02-06T11:59:15.552Z,6.63
2023-02-06T12:01:44.817Z,8.07
2023-02-06T12:04:31.246Z,12.35
2023-02-06T12:07:31.328Z,8.43
2023-02-06T12:09:57.936Z,8.10
2023-02-06T12:12:33.146Z,8.50
2023-02-06T12:15:46.399Z,7.22
2023-02-06T12:18:22.382Z,7.80
2023-02-06T12:21:15.156Z,9.00
2023-02-06T12:23:47.549Z,8.75
2023-02-06T12:26:20.543Z,8.10
2023-02-06T12:29:09.683Z,8.73
2023-02-06T12:32:04.651Z,7.85
2023-02-06T12:34:48.360Z,8.00
2023-02-06T12:39:49.025Z,8.38
2023-02-06T12:42:24.831Z,7.68
2023-02-06T12:45:02.071Z,8.50
2023-02-06T12:47:45.033Z,7.72
2023-02-06T12:50:27.179Z,8.73
2023-02-06T12:53:06.499Z,8.52
2023-02-06T12:55:42.241Z,8.48
2023-02-06T12:58:25.640Z,8.05
2023-02-06T13:01:12.055Z,7.88
2023-02-06T13:03:57.172Z,7.90
2023-02-06T13:06:30.665Z,8.18
2023-02-06T13:11:35.633Z,7.93
2023-02-06T13:14:06.927Z,7.78
2023-02-06T13:16:45.717Z,7.47
2023-02-06T13:19:25.257Z,8.60
2023-02-06T13:22:22.910Z,8.43
2023-02-06T13:24:51.388Z,8.68
2023-02-06T13:27:36.726Z,8.77
2023-02-06T13:30:31.337Z,7.25
2023-02-06T13:33:22.633Z,6.88
2023-02-06T13:35:56.604Z,6.88
2023-02-06T13:38:23.032Z,7.15
2023-02-06T13:41:29.259Z,7.88
2023-02-06T13:44:01.305Z,6.97
2023-02-06T13:46:47.934Z,7.95
2023-02-06T13:49:35.327Z,7.32
2023-02-06T13:52:18.625Z,5.97
2023-02-06T13:55:02.045Z,5.85
2023-02-06T13:57:44.343Z,8.02
2023-02-06T14:00:31.802Z,6.40
2023-02-06T14:03:18.234Z,6.10
2023-02-06T14:05:54.120Z,7.20
2023-02-06T14:08:59.411Z,7.63
2023-02-06T14:12:20.680Z,6.60
2023-02-06T14:15:16.593Z,7.47
2023-02-06T14:17:58.531Z,7.05
2023-02-06T14:21:00.192Z,8.73
2023-02-06T14:23:54.764Z,8.48
2023-02-06T14:26:40.180Z,7.35
2023-02-06T14:29:39.654Z,7.18
2023-02-06T14:32:24.126Z,8.27
2023-02-06T14:35:25.616Z,8.63
2023-02-06T14:38:13.565Z,7.95
2023-02-06T14:40:42.717Z,7.40
2023-02-06T14:43:17.545Z,5.82
2023-02-06T14:46:05.516Z,6.28
2023-02-06T14:48:44.173Z,6.75
2023-02-06T14:51:41.421Z,7.15
2023-02-06T14:54:29.543Z,5.80
2023-02-06T14:57:02.269Z,5.60
2023-02-06T14:59:30.202Z,5.50
2023-02-06T15:01:58.334Z,5.57
2023-02-06T15:04:28.353Z,5.90
2023-02-06T15:06:59.678Z,5.80
2023-02-06T15:09:40.441Z,6.63
2023-02-06T15:12:24.883Z,5.40
2023-02-06T15:15:00.792Z,6.85
2023-02-06T15:17:27.294Z,5.65
2023-02-06T15:19:53.828Z,5.53
2023-02-06T15:22:27.589Z,6.43
2023-02-06T15:24:59.977Z,5.68
2023-02-06T15:27:32.094Z,5.35
2023-02-06T15:30:00.524Z,5.13
2023-02-06T15:32:34.209Z,5.85
2023-02-06T15:35:02.509Z,5.88
2023-02-06T15:37:32.329Z,5.93
2023-02-06T15:40:27.987Z,5.70
2023-02-06T15:42:54.702Z,5.90
2023-02-06T15:45:24.587Z,6.03
2023-02-06T15:47:53.295Z,7.40
2023-02-06T15:50:24.413Z,6.32
2023-02-06T15:52:51.443Z,6.57
2023-02-06T15:55:33.376Z,6.47
2023-02-06T15:58:06.264Z,7.68
2023-02-06T16:00:36.879Z,5.00
2023-02-06T16:03:06.975Z,6.88
2023-02-06T16:05:36.156Z,7.00
2023-02-06T16:08:05.276Z,6.15
2023-02-06T16:10:37.564Z,6.00
2023-02-06T16:13:11.035Z,6.00
2023-02-06T16:15:40.326Z,6.50
2023-02-06T16:18:24.909Z,6.40
2023-02-06T16:20:51.608Z,6.78
2023-02-06T16:23:18.067Z,5.93
2023-02-06T16:25:46.883Z,8.18
2023-02-06T16:28:24.770Z,8.48
2023-02-06T16:30:57.889Z,7.18
2023-02-06T16:33:51.570Z,6.90
2023-02-06T16:36:20.188Z,7.13
2023-02-06T16:38:57.683Z,6.78
2023-02-06T16:41:35.535Z,6.60
2023-02-06T16:44:04.834Z,7.72
2023-02-06T16:46:31.500Z,6.47
2023-02-06T16:48:59.529Z,6.72
2023-02-06T16:51:28.345Z,7.10
2023-02-06T16:53:54.986Z,7.15
2023-02-06T16:56:22.000Z,7.22
2023-02-06T16:58:48.725Z,9.32
2023-02-06T17:01:25.183Z,10.88
2023-02-06T17:03:52.864Z,9.10
2023-02-06T17:06:25.110Z,6.78
2023-02-06T17:08:54.423Z,5.93
2023-02-06T17:11:21.127Z,5.93
2023-02-06T17:13:47.673Z,6.13
2023-02-06T17:16:22.565Z,6.30
2023-02-06T17:18:50.223Z,6.47
2023-02-06T17:21:19.084Z,5.75
2023-02-06T17:23:46.436Z,6.65
2023-02-06T17:26:15.387Z,6.40
2023-02-06T17:28:42.120Z,6.68
2023-02-06T17:31:09.143Z,6.38
2023-02-06T17:33:36.566Z,5.90
2023-02-06T17:36:06.999Z,5.70
2023-02-06T17:38:34.283Z,5.93
2023-02-06T17:41:00.835Z,5.90
2023-02-06T17:43:28.099Z,5.57
2023-02-06T17:45:54.591Z,5.10
2023-02-06T17:48:21.119Z,5.57
2023-02-06T17:50:47.634Z,5.18
2023-02-06T17:53:14.752Z,6.38
2023-02-06T17:55:41.649Z,6.07
2023-02-06T17:58:08.771Z,5.32
2023-02-06T18:00:35.644Z,5.00
2023-02-06T18:03:02.505Z,5.13
2023-02-06T18:05:29.081Z,5.78
2023-02-06T18:07:55.585Z,5.60
2023-02-06T18:10:24.674Z,6.57
2023-02-06T18:12:51.289Z,8.82
2023-02-06T18:15:17.820Z,11.70
2023-02-06T18:17:44.451Z,9.88
2023-02-06T18:20:12.132Z,6.00
2023-02-06T18:22:41.494Z,4.85
2023-02-06T18:25:13.850Z,4.88
2023-02-06T18:27:41.976Z,4.80
2023-02-06T18:30:09.851Z,4.35
2023-02-06T18:32:38.105Z,3.83
2023-02-06T18:35:06.379Z,4.10
2023-02-06T18:37:33.132Z,4.10
2023-02-06T18:39:59.584Z,3.55
2023-02-06T18:42:46.121Z,3.30
2023-02-06T18:45:12.970Z,3.35
2023-02-06T18:47:42.424Z,3.95
2023-02-06T18:50:11.406Z,3.90
2023-02-06T18:52:39.358Z,3.35
2023-02-06T18:55:08.396Z,3.17
2023-02-06T18:57:36.420Z,3.17
2023-02-06T19:00:09.121Z,3.20
2023-02-06T19:02:35.826Z,3.60
2023-02-06T19:05:02.491Z,3.50
2023-02-06T19:07:29.156Z,3.55
2023-02-06T19:10:00.385Z,3.22
2023-02-06T19:12:28.670Z,3.92
2023-02-06T19:14:59.165Z,3.33
2023-02-06T19:17:27.614Z,2.78
2023-02-06T19:19:54.774Z,2.97
2023-02-06T19:22:21.535Z,2.83
2023-02-06T19:24:48.065Z,2.75
2023-02-06T19:27:14.604Z,2.92
2023-02-06T19:29:41.123Z,3.47
2023-02-06T19:32:09.324Z,3.10
2023-02-06T19:34:39.931Z,3.35
2023-02-06T19:37:08.774Z,56.05
2023-02-06T19:39:37.064Z,5.20
2023-02-06T19:42:06.676Z,11.43
2023-02-06T19:44:33.495Z,4.00
2023-02-06T19:47:00.140Z,3.53
2023-02-06T19:49:27.143Z,3.53
2023-02-06T19:51:53.714Z,3.17
2023-02-06T19:54:20.233Z,3.10
2023-02-06T19:56:47.625Z,2.53
2023-02-06T19:59:20.040Z,3.08
2023-02-06T20:01:48.943Z,2.80
2023-02-06T20:04:16.423Z,2.30
2023-02-06T20:06:44.193Z,2.00
2023-02-06T20:09:13.389Z,2.50
2023-02-06T20:11:41.211Z,2.60
2023-02-06T20:14:08.869Z,2.42
2023-02-06T20:16:38.596Z,3.13
2023-02-06T20:19:18.499Z,3.17
2023-02-06T20:21:49.182Z,2.30
2023-02-06T20:24:20.989Z,2.40
2023-02-06T20:26:50.818Z,2.63
2023-02-06T20:29:38.074Z,2.60
2023-02-06T20:32:06.540Z,2.30
2023-02-06T20:34:33.689Z,2.63
2023-02-06T20:37:00.438Z,2.60
2023-02-06T20:39:27.557Z,2.72
2023-02-06T20:41:55.006Z,2.72
2023-02-06T20:44:21.856Z,2.25
2023-02-06T20:46:48.611Z,2.42
2023-02-06T20:49:18.112Z,2.30
2023-02-06T20:51:45.118Z,2.35
2023-02-06T20:54:12.066Z,2.53
2023-02-06T20:56:39.969Z,2.15
2023-02-06T20:59:06.955Z,2.53
2023-02-06T21:01:34.272Z,2.53
2023-02-06T21:04:07.162Z,3.13
2023-02-06T21:06:35.709Z,2.35
2023-02-06T21:09:03.153Z,2.78
2023-02-06T21:11:32.244Z,2.55
2023-02-06T21:14:01.444Z,2.10
2023-02-06T21:16:29.622Z,2.25
2023-02-06T21:18:57.720Z,2.40
2023-02-06T21:21:27.753Z,2.22
2023-02-06T21:23:57.666Z,2.03
2023-02-06T21:26:25.802Z,2.28
2023-02-06T21:28:52.789Z,2.00
2023-02-06T21:31:23.830Z,1.77
2023-02-06T21:33:51.877Z,2.20
2023-02-06T21:36:21.094Z,2.50
2023-02-06T21:38:47.794Z,1.65
2023-02-06T21:41:17.981Z,2.20
2023-02-06T21:43:45.461Z,1.52
2023-02-06T21:46:13.018Z,1.60
2023-02-06T21:48:40.272Z,1.55
2023-02-06T21:51:11.568Z,1.95
2023-02-06T21:53:39.036Z,1.83
2023-02-06T21:56:07.662Z,1.90
2023-02-06T21:58:35.556Z,1.63
2023-02-06T22:01:02.480Z,1.80
2023-02-06T22:03:29.252Z,1.95
2023-02-06T22:05:55.739Z,2.10
2023-02-06T22:08:22.256Z,1.80
2023-02-06T22:10:48.722Z,1.90
2023-02-06T22:13:15.225Z,1.95
2023-02-06T22:15:48.490Z,1.98
2023-02-06T22:18:14.991Z,2.17
2023-02-06T22:20:41.459Z,2.00
2023-02-06T22:23:07.947Z,2.42
2023-02-06T22:25:34.432Z,2.40
2023-02-06T22:28:00.935Z,2.30
2023-02-06T22:30:27.551Z,2.70
2023-02-06T22:32:54.083Z,2.47
2023-02-06T22:35:20.591Z,2.80
2023-02-06T22:37:47.422Z,2.00
2023-02-06T22:40:13.942Z,2.28
2023-02-06T22:42:40.392Z,2.42
2023-02-06T22:45:07.210Z,1.83
2023-02-06T22:47:33.682Z,1.92
2023-02-06T22:50:00.170Z,2.10
2023-02-06T22:52:46.017Z,2.28
2023-02-06T22:55:12.627Z,2.28
2023-02-06T22:57:39.090Z,2.30
2023-02-06T23:00:09.398Z,2.28
2023-02-06T23:02:38.419Z,1.55
2023-02-06T23:05:05.131Z,1.95
2023-02-06T23:07:31.577Z,1.60
2023-02-06T23:09:58.035Z,1.55
2023-02-06T23:12:24.532Z,1.77
2023-02-06T23:14:51.014Z,1.80
2023-02-06T23:17:17.535Z,1.95
2023-02-06T23:19:44.149Z,1.80
2023-02-06T23:22:10.814Z,2.55
2023-02-06T23:24:37.356Z,2.10
2023-02-06T23:27:03.890Z,2.15
2023-02-06T23:29:30.426Z,2.33
2023-02-06T23:31:56.896Z,2.67
2023-02-06T23:34:24.423Z,2.50
2023-02-06T23:36:52.032Z,2.33
2023-02-06T23:39:18.747Z,2.40
2023-02-06T23:41:45.230Z,2.63
2023-02-06T23:44:11.921Z,2.80
2023-02-06T23:46:40.218Z,2.92
2023-02-06T23:49:07.251Z,3.00
2023-02-06T23:51:35.051Z,3.08
2023-02-06T23:54:01.987Z,3.05
2023-02-06T23:56:30.178Z,2.97
2023-02-06T23:58:58.623Z,3.00
